Las Palomas, New Mexico
Current Conditions -  °F | °C
As of 1:53 PM on Thursday 23 Oct 2014 (Local Time) from KTCS Reporting Station
Clear Clear  
Wind Chill: 76°   Ceiling: Unl
Heat Index: 76°   Visibility: 10mi
Dew Point: 41°   Wind: 6mph
Humidity: 29%   Direction: 80°E
Pressure: 30.2"   Gusts: NA
Location:  33.1162°N, 107.291°W
Report Text: KTCS 231953Z AUTO 08005KT 10SM CLR 24/05 A3020 RMK AO2 SLP152 T02440050 TSNO
Loading
Personal Weather Stations






























Interactive Weather Map New forecast layout! Learn more

10-Day Weather Forecast

Advertisements
Track Severe Weather on mobile